St. Day, United Kingdom
Current Conditions -  °F | °C
As of 2:50 AM on Thursday 23 Oct 2014 (Local Time) from EGDR Reporting Station
Haze Haze  
Wind Chill: 13°   Ceiling: 2800
Heat Index: 13°   Visibility: 6mi
Dew Point: 11°   Wind: 15mph
Humidity: 88%   Direction: 220°SW
Pressure: 30.18"   Gusts: NA
Location:  50.24°N, 5.19°W
Report Text: EGDR 230150Z 22013KT 9999 HZ FEW022 OVC028 13/11 Q1022 BLU
Loading
Personal Weather Stations






























Interactive Weather Map
Tropical Storm Tracking
New forecast layout! Learn more

10-Day Weather Forecast

Advertisements
Track Severe Weather on mobile